Time;durP1;ratioP1;P1;durP2;ratioP2;P2;SDS_P1;SDS_P2;PMS_P1;PMS_P2;Temp;Humidity;BMP_temperature;BMP_pressure;BME280_temperature;BME280_humidity;BME280_pressure;Samples;Min_cycle;Max_cycle;Signal;HPM_P1;HPM_P2
2021/11/29 00:04:54;;;;;;;36.30;22.80;;;;;;;1.05;84.60;97599.93;230572;1193;139660;-67
2021/11/29 00:09:56;;;;;;;35.00;18.90;;;;;;;1.04;84.59;97605.99;230621;1193;140330;-70
2021/11/29 00:14:59;;;;;;;31.80;17.10;;;;;;;1.03;84.32;97609.52;230426;1193;153909;-70
2021/11/29 00:20:04;;;;;;;36.30;18.40;;;;;;;1.08;84.11;97611.43;230196;1193;162851;-68
2021/11/29 00:25:08;;;;;;;34.90;19.00;;;;;;;1.10;83.95;97615.91;228741;1193;140156;-71
2021/11/29 00:30:14;;;;;;;40.60;18.10;;;;;;;1.08;84.10;97627.45;229216;1193;140484;-71
2021/11/29 00:35:28;;;;;;;35.90;19.40;;;;;;;1.10;84.00;97624.52;228063;1193;141596;-71
2021/11/29 00:40:31;;;;;;;28.30;16.80;;;;;;;1.13;84.17;97624.27;228683;1193;149876;-67
2021/11/29 00:45:34;;;;;;;33.10;17.40;;;;;;;1.13;84.58;97616.13;227858;1193;139661;-68
2021/11/29 00:50:38;;;;;;;34.30;17.00;;;;;;;1.06;84.18;97623.05;228902;1193;139273;-67
2021/11/29 00:56:13;;;;;;;37.00;19.40;;;;;;;1.04;84.03;97636.59;228482;1193;139630;-69
2021/11/29 01:01:17;;;;;;;35.80;18.70;;;;;;;1.02;84.18;97629.92;228608;1193;140017;-65
2021/11/29 01:06:20;;;;;;;35.50;17.90;;;;;;;1.00;84.25;97625.84;229044;1193;138569;-69
2021/11/29 01:11:23;;;;;;;35.60;15.70;;;;;;;0.94;84.35;97650.61;228280;1193;139791;-69
2021/11/29 01:16:25;;;;;;;34.80;18.50;;;;;;;0.94;83.97;97658.96;227544;1193;139558;-67
2021/11/29 01:21:29;;;;;;;36.40;18.60;;;;;;;0.94;84.16;97656.86;228615;1193;139659;-68
2021/11/29 01:26:32;;;;;;;38.10;22.60;;;;;;;0.94;84.55;97647.05;228058;1192;141287;-68
2021/11/29 01:31:35;;;;;;;39.40;16.20;;;;;;;0.93;84.53;97647.64;228755;1193;140746;-68
2021/11/29 01:36:38;;;;;;;37.70;16.50;;;;;;;0.94;84.49;97638.59;227906;1193;140432;-67
2021/11/29 01:41:45;;;;;;;32.20;17.40;;;;;;;0.93;84.29;97626.45;228814;1186;149589;-69
2021/11/29 01:46:48;;;;;;;37.10;18.20;;;;;;;0.89;84.81;97627.05;228179;1193;139774;-68
2021/11/29 01:51:52;;;;;;;33.90;17.30;;;;;;;0.88;84.62;97632.52;229791;1193;140956;-70
2021/11/29 01:56:55;;;;;;;26.50;15.30;;;;;;;0.89;84.42;97629.16;228885;1193;150587;-67
2021/11/29 02:01:58;;;;;;;30.90;16.60;;;;;;;0.94;84.70;97628.95;228006;1193;140536;-68
2021/11/29 02:07:01;;;;;;;30.00;17.20;;;;;;;0.95;84.36;97633.94;230510;1187;139897;-70
2021/11/29 02:12:17;;;;;;;31.30;18.10;;;;;;;0.94;84.55;97637.38;228323;1193;141396;-66
2021/11/29 02:17:20;;;;;;;31.80;15.50;;;;;;;0.91;84.53;97640.95;230178;1193;141008;-69
2021/11/29 02:22:23;;;;;;;24.90;13.30;;;;;;;0.93;84.18;97628.72;229676;1193;139465;-68
2021/11/29 02:27:26;;;;;;;29.40;16.40;;;;;;;0.99;84.79;97619.27;229321;1193;140059;-69
2021/11/29 02:32:29;;;;;;;40.90;20.40;;;;;;;1.01;84.67;97624.20;229659;1193;139540;-69
2021/11/29 02:37:32;;;;;;;39.00;18.40;;;;;;;0.99;84.41;97625.52;227985;1193;140195;-68
2021/11/29 02:42:36;;;;;;;30.40;16.00;;;;;;;0.97;84.33;97644.07;227596;1193;140906;-68
2021/11/29 02:47:42;;;;;;;25.70;14.90;;;;;;;1.02;84.71;97649.17;227978;1193;140315;-67
2021/11/29 02:52:56;;;;;;;30.30;16.30;;;;;;;0.95;84.15;97652.42;227950;1193;139786;-67
2021/11/29 02:57:59;;;;;;;30.70;17.10;;;;;;;0.89;84.78;97651.35;228313;1193;140090;-67
2021/11/29 03:03:09;;;;;;;23.00;13.40;;;;;;;0.89;84.95;97639.85;229153;1193;139755;-68
2021/11/29 03:08:28;;;;;;;27.50;16.90;;;;;;;0.94;84.55;97632.77;227965;1193;139060;-69
2021/11/29 03:13:32;;;;;;;30.40;14.50;;;;;;;0.99;85.00;97632.38;228136;1193;141459;-67
2021/11/29 03:18:42;;;;;;;20.60;11.10;;;;;;;1.00;84.66;97635.48;228199;1193;139551;-68
2021/11/29 03:23:50;;;;;;;25.40;11.70;;;;;;;0.91;84.41;97642.67;228922;1193;139003;-71
2021/11/29 03:29:23;;;;;;;24.10;13.00;;;;;;;0.90;84.48;97648.76;228325;1193;140249;-70
2021/11/29 03:34:27;;;;;;;23.80;14.40;;;;;;;0.90;84.49;97654.23;229078;1193;138895;-69
2021/11/29 03:39:33;;;;;;;21.00;12.50;;;;;;;0.87;84.35;97654.17;227825;1193;139175;-69
2021/11/29 03:44:37;;;;;;;22.80;12.30;;;;;;;0.92;84.55;97649.26;227851;1193;139362;-68
2021/11/29 03:50:01;;;;;;;19.60;10.80;;;;;;;0.92;85.11;97651.82;228371;1193;138482;-68
2021/11/29 03:55:25;;;;;;;21.80;11.50;;;;;;;0.89;84.68;97650.98;227594;1194;139424;-68
2021/11/29 04:00:32;;;;;;;21.40;10.60;;;;;;;0.89;84.88;97643.85;228552;1194;138364;-67
2021/11/29 04:05:34;;;;;;;19.20;12.00;;;;;;;0.91;84.69;97646.71;228758;1193;140080;-68
2021/11/29 04:11:20;;;;;;;20.50;13.70;;;;;;;0.91;84.54;97648.61;227742;1187;139277;-68
2021/11/29 04:16:23;;;;;;;16.80;9.30;;;;;;;0.92;84.68;97654.92;230255;1193;139481;-68
2021/11/29 04:21:26;;;;;;;20.60;10.10;;;;;;;0.91;84.95;97647.88;230629;1193;138416;-68
2021/11/29 04:26:30;;;;;;;23.40;12.40;;;;;;;0.92;84.46;97648.22;230450;1193;141267;-76
2021/11/29 04:31:32;;;;;;;26.00;14.40;;;;;;;0.94;84.30;97661.05;229490;1179;140379;-72
2021/11/29 04:36:34;;;;;;;26.70;14.20;;;;;;;0.91;84.58;97661.73;229264;1192;139210;-72
2021/11/29 04:42:01;;;;;;;33.60;12.80;;;;;;;0.87;84.54;97663.89;230066;1192;138164;-70
2021/11/29 04:47:13;;;;;;;32.10;16.00;;;;;;;0.83;84.43;97661.00;228396;1193;150693;-67
2021/11/29 04:52:48;;;;;;;33.30;17.30;;;;;;;0.82;84.43;97650.31;229434;1192;140748;-68
2021/11/29 04:57:55;;;;;;;44.80;21.60;;;;;;;0.81;84.91;97661.14;228810;1192;140391;-67
2021/11/29 05:02:58;;;;;;;39.80;22.80;;;;;;;0.80;84.94;97664.31;228386;1192;161161;-67
2021/11/29 05:08:03;;;;;;;46.20;19.80;;;;;;;0.79;85.01;97664.35;228326;1192;139811;-67
2021/11/29 05:13:07;;;;;;;48.90;21.30;;;;;;;0.78;84.89;97672.59;228191;1193;141226;-67
2021/11/29 05:18:10;;;;;;;51.00;20.90;;;;;;;0.78;84.85;97675.70;228403;1192;140764;-68
2021/11/29 05:23:16;;;;;;;41.20;21.30;;;;;;;0.77;85.16;97676.04;228150;1193;140726;-67
2021/11/29 05:28:19;;;;;;;37.00;18.40;;;;;;;0.74;85.00;97679.30;228154;1193;139323;-69
2021/11/29 05:33:45;;;;;;;44.50;20.10;;;;;;;0.71;85.25;97695.16;228288;1192;138366;-67
2021/11/29 05:38:54;;;;;;;38.10;19.10;;;;;;;0.73;85.03;97712.56;229265;1192;140947;-67
2021/11/29 05:43:56;;;;;;;45.00;20.80;;;;;;;0.74;84.84;97722.52;227851;1193;140246;-66
2021/11/29 05:49:01;;;;;;;43.30;19.80;;;;;;;0.72;84.70;97720.57;228457;1193;140407;-66
2021/11/29 05:54:05;;;;;;;45.30;17.80;;;;;;;0.71;85.09;97715.13;229844;1193;140640;-70
2021/11/29 05:59:33;;;;;;;41.60;19.30;;;;;;;0.73;84.85;97715.84;228030;1193;140048;-70
2021/11/29 06:04:36;;;;;;;45.20;24.20;;;;;;;0.72;84.91;97721.58;228242;1193;139210;-66
2021/11/29 06:09:49;;;;;;;39.10;16.40;;;;;;;0.76;85.24;97723.83;229519;1193;138645;-67
2021/11/29 06:14:53;;;;;;;43.10;17.80;;;;;;;0.78;85.01;97719.13;229879;1193;140208;-68
2021/11/29 06:19:56;;;;;;;29.70;14.40;;;;;;;0.84;84.61;97729.47;230565;1193;139886;-69
2021/11/29 06:25:00;;;;;;;29.70;16.30;;;;;;;0.88;84.93;97737.29;230428;1193;139742;-68
2021/11/29 06:30:04;;;;;;;40.80;16.10;;;;;;;0.89;85.18;97744.40;230968;1192;140160;-67
2021/11/29 06:35:09;;;;;;;42.50;18.90;;;;;;;0.91;84.78;97747.13;229708;1192;140814;-65
2021/11/29 06:40:12;;;;;;;38.60;17.60;;;;;;;0.91;85.07;97748.02;230317;1192;141900;-66
2021/11/29 06:45:15;;;;;;;33.30;16.40;;;;;;;0.93;85.17;97752.69;230221;1192;141748;-66
2021/11/29 06:50:18;;;;;;;39.20;19.80;;;;;;;1.02;85.27;97758.63;229912;1192;141585;-67
2021/11/29 06:55:21;;;;;;;40.90;20.30;;;;;;;1.03;84.81;97757.81;228821;1192;139969;-67
2021/11/29 07:00:29;;;;;;;42.30;20.20;;;;;;;1.01;84.62;97758.81;229589;1193;138350;-69
2021/11/29 07:05:31;;;;;;;38.40;14.30;;;;;;;0.94;84.47;97759.25;228812;1192;141189;-68
2021/11/29 07:10:40;;;;;;;47.00;19.40;;;;;;;0.94;84.99;97765.02;228981;1192;141224;-72
2021/11/29 07:15:44;;;;;;;28.50;14.70;;;;;;;0.93;84.66;97772.61;228982;1192;142321;-68
2021/11/29 07:20:49;;;;;;;34.50;17.00;;;;;;;0.92;84.98;97769.29;228575;1192;141674;-68
2021/11/29 07:25:52;;;;;;;38.60;18.80;;;;;;;0.89;85.03;97775.13;228463;1192;139537;-67
2021/11/29 07:30:55;;;;;;;36.40;15.50;;;;;;;0.88;85.15;97777.64;228695;1192;161877;-67
2021/11/29 07:36:07;;;;;;;39.40;18.20;;;;;;;0.88;84.84;97775.54;228073;1192;139696;-67
2021/11/29 07:41:12;;;;;;;36.90;16.90;;;;;;;0.88;84.99;97778.27;228854;1193;139837;-66
2021/11/29 07:46:14;;;;;;;35.20;17.10;;;;;;;0.91;85.12;97782.02;228395;1192;139134;-69
2021/11/29 07:51:18;;;;;;;42.00;19.00;;;;;;;0.91;85.09;97798.18;228857;1192;138437;-68
2021/11/29 07:56:40;;;;;;;33.10;15.30;;;;;;;0.91;85.37;97805.95;228758;1192;139051;-68
2021/11/29 08:01:54;;;;;;;33.70;15.90;;;;;;;0.95;85.13;97816.02;229279;1192;139251;-71
2021/11/29 08:06:59;;;;;;;25.10;14.90;;;;;;;1.00;85.18;97817.79;227837;1193;139823;-67
2021/11/29 08:12:12;;;;;;;;;;;;;;;;;;;;;
2021/11/29 08:17:17;;;;;;;22.60;12.40;;;;;;;0.97;84.93;97826.94;228692;1192;138946;-67
2021/11/29 08:22:41;;;;;;;28.10;15.60;;;;;;;1.08;85.02;97833.69;229256;1193;139580;-67
2021/11/29 08:27:44;;;;;;;23.70;13.60;;;;;;;1.19;84.68;97831.17;230680;1193;139670;-65
2021/11/29 08:32:48;;;;;;;26.10;15.20;;;;;;;1.21;84.86;97835.73;230329;1191;139756;-66
2021/11/29 08:38:05;;;;;;;29.10;15.00;;;;;;;1.26;84.37;97836.11;229861;1192;141578;-67
2021/11/29 08:43:18;;;;;;;23.50;14.60;;;;;;;1.25;84.56;97834.10;230384;1192;139511;-67
2021/11/29 08:48:22;;;;;;;27.90;15.00;;;;;;;1.28;84.55;97834.48;229564;1192;138516;-66
2021/11/29 08:53:27;;;;;;;30.10;15.50;;;;;;;1.26;84.29;97839.10;229930;1193;139624;-67
2021/11/29 08:58:30;;;;;;;32.90;15.20;;;;;;;1.26;84.31;97843.35;228580;1192;139575;-67
2021/11/29 09:03:32;;;;;;;27.00;12.90;;;;;;;1.26;84.59;97842.05;228693;1192;140038;-67
2021/11/29 09:08:35;;;;;;;28.30;14.10;;;;;;;1.23;84.51;97846.95;229168;1192;138564;-67
2021/11/29 09:13:44;;;;;;;25.50;12.20;;;;;;;1.19;84.47;97844.34;228867;1192;139483;-67
2021/11/29 09:18:52;;;;;;;26.50;11.80;;;;;;;1.20;84.42;97848.05;229040;1192;139683;-65
2021/11/29 09:24:06;;;;;;;24.00;14.20;;;;;;;1.23;84.39;97851.38;228616;1193;139940;-66
2021/11/29 09:29:11;;;;;;;22.90;13.40;;;;;;;1.28;84.84;97855.48;228961;1193;138499;-66
2021/11/29 09:34:13;;;;;;;23.30;14.10;;;;;;;1.28;84.72;97853.62;228925;1192;140534;-68
2021/11/29 09:39:18;;;;;;;20.10;12.20;;;;;;;1.25;84.42;97854.05;229152;1192;140010;-68
2021/11/29 09:44:21;;;;;;;21.50;13.30;;;;;;;1.26;84.33;97855.58;229344;1193;141875;-68
2021/11/29 09:49:39;;;;;;;;;;;;;;;;;;;;;
2021/11/29 09:54:43;;;;;;;25.50;12.70;;;;;;;1.20;84.38;97846.79;229837;1192;139534;-68
2021/11/29 09:59:46;;;;;;;23.70;12.90;;;;;;;1.21;84.55;97843.14;228062;1193;140436;-68
2021/11/29 10:04:49;;;;;;;22.00;11.50;;;;;;;1.24;84.33;97847.08;229017;1193;141796;-66
2021/11/29 10:09:55;;;;;;;22.50;12.60;;;;;;;1.24;84.27;97840.83;229489;1192;140813;-66
2021/11/29 10:15:17;;;;;;;17.70;10.70;;;;;;;1.23;84.66;97836.88;229196;1193;140476;-73
2021/11/29 10:20:20;;;;;;;25.20;11.90;;;;;;;1.23;84.41;97836.55;230522;1191;140996;-71
2021/11/29 10:25:22;;;;;;;24.50;14.30;;;;;;;1.27;84.48;97832.79;230159;1193;140630;-72
2021/11/29 10:30:28;;;;;;;21.20;11.50;;;;;;;1.34;84.17;97835.13;230821;1192;141593;-72
2021/11/29 10:35:36;;;;;;;20.10;11.60;;;;;;;1.38;84.22;97838.23;229974;1193;140608;-70
2021/11/29 10:40:39;;;;;;;21.00;12.50;;;;;;;1.36;83.79;97838.54;230598;1192;140001;-71
2021/11/29 10:45:43;;;;;;;26.80;12.70;;;;;;;1.31;83.70;97833.31;228652;1193;140833;-68
2021/11/29 10:50:45;;;;;;;16.10;9.80;;;;;;;1.34;83.88;97831.98;229052;1187;139349;-70
2021/11/29 10:56:03;;;;;;;21.40;11.80;;;;;;;1.35;84.20;97837.52;227862;1193;139718;-66
2021/11/29 11:01:06;;;;;;;23.20;13.60;;;;;;;1.39;83.95;97839.36;228762;1193;140910;-66
2021/11/29 11:06:13;;;;;;;17.60;10.00;;;;;;;1.43;84.12;97841.94;228591;1194;139865;-66
2021/11/29 11:11:29;;;;;;;18.70;12.00;;;;;;;1.42;83.97;97846.18;229467;1192;138974;-64
2021/11/29 11:16:57;;;;;;;18.80;13.50;;;;;;;1.39;83.91;97842.83;228412;1193;143321;-63
2021/11/29 11:22:12;;;;;;;20.20;12.30;;;;;;;1.46;84.01;97847.64;228864;1193;139165;-66
2021/11/29 11:27:16;;;;;;;19.10;11.20;;;;;;;1.43;83.68;97856.31;228669;1193;140152;-66
2021/11/29 11:32:38;;;;;;;18.00;10.70;;;;;;;1.37;83.89;97856.63;228331;1193;140714;-66
2021/11/29 11:38:02;;;;;;;20.10;12.70;;;;;;;1.36;83.83;97860.08;227886;1193;140448;-66
2021/11/29 11:43:36;;;;;;;;;;;;;;;;;;;;;
2021/11/29 11:49:08;;;;;;;21.80;12.10;;;;;;;1.29;83.99;97863.78;227731;1194;139869;-66
2021/11/29 11:54:20;;;;;;;19.60;11.20;;;;;;;1.33;83.84;97864.34;228689;1193;139902;-65
2021/11/29 11:59:46;;;;;;;29.00;14.10;;;;;;;1.27;83.89;97869.05;229406;1193;138733;-66
2021/11/29 12:05:36;;;;;;;23.30;13.40;;;;;;;1.24;83.87;97868.40;228040;1193;141408;-66
2021/11/29 12:11:05;;;;;;;22.90;14.20;;;;;;;1.27;83.93;97871.27;228962;1193;139248;-67
2021/11/29 12:16:10;;;;;;;25.40;14.70;;;;;;;1.31;84.09;97871.42;227336;1194;142870;-65
2021/11/29 12:21:26;;;;;;;27.30;15.20;;;;;;;1.33;84.26;97870.88;228714;1193;138648;-64
2021/11/29 12:27:08;;;;;;;34.10;17.30;;;;;;;1.30;84.04;97873.62;230135;1193;141386;-64
2021/11/29 12:32:12;;;;;;;31.30;17.10;;;;;;;1.30;83.51;97877.59;229397;1193;141577;-65
2021/11/29 12:37:59;;;;;;;;;;;;;;;;;;;;;
2021/11/29 12:43:03;;;;;;;;;;;;;;;1.25;83.94;97880.59;228544;1195;139200;-64
2021/11/29 12:48:32;;;;;;;28.00;16.00;;;;;;;1.19;83.84;97883.91;228347;1193;125374;-65
2021/11/29 12:53:49;;;;;;;33.80;17.50;;;;;;;1.15;83.87;97882.79;229048;1193;140738;-63
2021/11/29 12:59:00;;;;;;;31.50;15.80;;;;;;;1.12;83.71;97892.78;229005;1195;139730;-67
2021/11/29 13:04:19;;;;;;;32.00;16.40;;;;;;;1.08;84.01;97893.08;227245;1193;139495;-66
2021/11/29 13:09:23;;;;;;;28.80;15.40;;;;;;;1.04;83.66;97900.74;227607;1193;141188;-65
2021/11/29 13:14:32;;;;;;;33.80;21.80;;;;;;;1.04;83.86;97903.48;228655;1194;139524;-64
2021/11/29 13:19:41;;;;;;;27.10;15.30;;;;;;;1.00;84.04;97901.46;227321;1195;139589;-62
2021/11/29 13:24:50;;;;;;;29.30;15.80;;;;;;;0.98;84.09;97906.85;227704;1195;158995;-65
2021/11/29 13:30:05;;;;;;;29.50;15.20;;;;;;;0.97;83.96;97913.35;227693;1195;139827;-64
2021/11/29 13:35:16;;;;;;;31.00;15.60;;;;;;;0.92;84.22;97918.13;227682;1195;138881;-66
2021/11/29 13:40:35;;;;;;;31.80;16.00;;;;;;;0.87;84.26;97920.87;228091;1193;140772;-64
2021/11/29 13:45:39;;;;;;;25.90;13.70;;;;;;;0.83;84.12;97928.57;227645;1193;139621;-65
2021/11/29 13:50:53;;;;;;;20.80;11.30;;;;;;;0.81;84.37;97932.98;229201;1193;139091;-65
2021/11/29 13:55:59;;;;;;;28.00;13.90;;;;;;;0.79;84.25;97939.93;228976;1193;139662;-64
2021/11/29 14:01:04;;;;;;;40.50;17.70;;;;;;;0.77;84.37;97942.90;228463;1193;140157;-63
2021/11/29 14:06:08;;;;;;;26.10;14.60;;;;;;;0.78;83.93;97946.83;228569;1193;141483;-65
2021/11/29 14:11:33;;;;;;;20.50;11.60;;;;;;;0.74;84.53;97953.45;227761;1193;140327;-65
2021/11/29 14:16:49;;;;;;;19.60;12.30;;;;;;;0.74;84.34;97967.45;229616;1193;139172;-64
2021/11/29 14:21:56;;;;;;;28.40;15.20;;;;;;;0.75;84.28;97966.03;230058;1193;139704;-67
2021/11/29 14:27:04;;;;;;;33.40;17.20;;;;;;;0.75;84.14;97972.80;229988;1193;140021;-67
2021/11/29 14:32:11;;;;;;;21.90;11.70;;;;;;;0.72;84.40;97978.24;230048;1193;139193;-65
2021/11/29 14:37:29;;;;;;;24.30;11.80;;;;;;;0.71;84.25;97982.98;229946;1187;140111;-64
2021/11/29 14:42:38;;;;;;;11.90;8.10;;;;;;;0.75;84.17;97989.68;230392;1193;140662;-64
2021/11/29 14:47:50;;;;;;;33.80;22.10;;;;;;;0.75;84.36;97998.39;229853;1193;139235;-66
2021/11/29 14:53:07;;;;;;;30.80;15.60;;;;;;;0.71;84.31;98005.27;230312;1193;139646;-66
2021/11/29 14:58:15;;;;;;;26.60;13.90;;;;;;;0.72;84.38;98007.25;229052;1193;139553;-66
2021/11/29 15:03:38;;;;;;;23.20;15.00;;;;;;;0.72;84.17;98014.19;228874;1193;139489;-65
2021/11/29 15:09:29;;;;;;;;;;;;;;;;;;;;;
2021/11/29 15:14:34;;;;;;;28.60;16.60;;;;;;;0.66;84.52;98032.09;228542;1193;163911;-64
2021/11/29 15:19:39;;;;;;;27.70;16.20;;;;;;;0.67;84.14;98032.89;227814;1195;140433;-64
2021/11/29 15:24:49;;;;;;;26.70;13.60;;;;;;;0.62;84.55;98032.95;227624;1195;141365;-64
2021/11/29 15:30:32;;;;;;;22.50;13.00;;;;;;;0.56;84.40;98034.77;227963;1194;138854;-65
2021/11/29 15:35:51;;;;;;;23.00;12.70;;;;;;;0.54;84.33;98040.23;227638;1195;140191;-69
2021/11/29 15:41:00;;;;;;;23.50;14.30;;;;;;;0.53;84.78;98046.04;227512;1195;139855;-66
2021/11/29 15:46:30;;;;;;;28.20;13.40;;;;;;;0.52;84.81;98048.75;227833;1194;138415;-66
2021/11/29 15:51:41;;;;;;;31.40;17.80;;;;;;;0.55;84.71;98049.50;228592;1193;139442;-66
2021/11/29 15:56:46;;;;;;;29.50;17.20;;;;;;;0.57;84.80;98060.42;227415;1194;140180;-68
2021/11/29 16:01:51;;;;;;;26.60;15.30;;;;;;;0.54;84.98;98062.21;227456;1196;231531;-65
2021/11/29 16:06:55;;;;;;;24.80;14.40;;;;;;;0.51;84.65;98066.14;228778;1195;139189;-69
2021/11/29 16:11:59;;;;;;;26.60;16.70;;;;;;;0.53;84.75;98070.65;228108;1195;139866;-67
2021/11/29 16:17:05;;;;;;;20.10;11.60;;;;;;;0.58;84.77;98076.31;228253;1195;138751;-68
2021/11/29 16:22:09;;;;;;;30.00;14.90;;;;;;;0.56;84.49;98081.27;229712;1193;139780;-68
2021/11/29 16:27:12;;;;;;;24.30;15.00;;;;;;;0.56;84.55;98087.05;230132;1194;138866;-70
2021/11/29 16:32:15;;;;;;;28.10;16.30;;;;;;;0.55;84.63;98085.91;230090;1193;139718;-69
2021/11/29 16:37:19;;;;;;;29.00;16.10;;;;;;;0.56;84.46;98096.33;230122;1195;139167;-69
2021/11/29 16:42:22;;;;;;;25.80;15.40;;;;;;;0.60;84.58;98105.20;227856;1193;140408;-66
2021/11/29 16:47:25;;;;;;;12.50;8.70;;;;;;;0.64;84.34;98114.73;230051;1187;139741;-66
2021/11/29 16:52:28;;;;;;;21.50;14.40;;;;;;;0.61;84.51;98120.77;229122;1195;139872;-68
2021/11/29 16:57:33;;;;;;;30.20;15.90;;;;;;;0.59;84.68;98126.08;227611;1195;138965;-67
2021/11/29 17:02:35;;;;;;;24.00;14.70;;;;;;;0.67;84.77;98127.63;228882;1194;140986;-68
2021/11/29 17:07:50;;;;;;;27.10;17.00;;;;;;;0.67;84.31;98133.92;227498;1195;138775;-64
2021/11/29 17:12:53;;;;;;;23.20;12.90;;;;;;;0.67;84.88;98138.68;228091;1194;138800;-66
2021/11/29 17:17:55;;;;;;;26.40;13.50;;;;;;;0.63;84.62;98142.52;229518;1193;139176;-65
2021/11/29 17:23:09;;;;;;;28.20;17.40;;;;;;;0.60;84.69;98143.04;227879;1193;139706;-66
2021/11/29 17:28:12;;;;;;;27.90;15.50;;;;;;;0.60;84.56;98146.64;228582;1193;139050;-69
2021/11/29 17:33:17;;;;;;;31.10;16.00;;;;;;;0.56;84.58;98149.04;227449;1195;138542;-65
2021/11/29 17:38:19;;;;;;;24.20;13.70;;;;;;;0.57;84.73;98154.89;228606;1195;138940;-69
2021/11/29 17:43:22;;;;;;;22.60;14.80;;;;;;;0.61;84.89;98160.67;228308;1195;140218;-67
2021/11/29 17:48:27;;;;;;;20.80;13.60;;;;;;;0.62;84.62;98169.77;228803;1193;139601;-67
2021/11/29 17:53:31;;;;;;;25.00;13.90;;;;;;;0.61;85.04;98173.69;228174;1195;139574;-68
2021/11/29 17:58:34;;;;;;;25.60;13.20;;;;;;;0.61;84.41;98174.51;228411;1192;138922;-65
2021/11/29 18:03:37;;;;;;;25.00;17.60;;;;;;;0.62;84.47;98175.86;227679;1193;139499;-65
2021/11/29 18:13:48;;;;;;;25.50;14.90;;;;;;;0.59;84.26;98186.30;230092;1194;139261;-66
2021/11/29 18:18:50;;;;;;;28.50;16.10;;;;;;;0.57;84.43;98187.40;228991;1193;139450;-66
2021/11/29 18:23:53;;;;;;;28.20;17.60;;;;;;;0.58;84.78;98186.84;229214;1193;222816;-67
2021/11/29 18:28:56;;;;;;;29.00;18.40;;;;;;;0.58;84.77;98180.94;229419;1193;140994;-67
2021/11/29 18:33:59;;;;;;;32.40;18.00;;;;;;;0.64;84.79;98196.88;230473;1193;139865;-67
2021/11/29 18:39:02;;;;;;;36.90;19.30;;;;;;;0.70;84.64;98197.73;230233;1193;140119;-67
2021/11/29 18:44:06;;;;;;;33.50;17.30;;;;;;;0.71;84.66;98199.19;228960;1193;138787;-67
2021/11/29 18:49:13;;;;;;;27.90;15.90;;;;;;;0.76;84.71;98205.70;229573;1193;139417;-67
2021/11/29 18:54:21;;;;;;;29.70;16.80;;;;;;;0.80;84.74;98210.65;229827;1193;140069;-67
2021/11/29 18:59:33;;;;;;;31.80;18.10;;;;;;;0.79;84.68;98220.45;228969;1195;140503;-67
2021/11/29 19:04:40;;;;;;;33.20;16.90;;;;;;;0.78;84.72;98221.59;228350;1193;139828;-67
2021/11/29 19:09:57;;;;;;;24.90;13.30;;;;;;;0.77;84.65;98221.03;227348;1193;138975;-67
2021/11/29 19:15:00;;;;;;;29.60;15.00;;;;;;;0.73;84.79;98220.52;228685;1193;139487;-67
2021/11/29 19:20:05;;;;;;;24.70;15.30;;;;;;;0.67;84.85;98229.10;227750;1193;139849;-67
2021/11/29 19:25:10;;;;;;;33.90;15.90;;;;;;;0.69;84.85;98238.41;227778;1193;141592;-66
2021/11/29 19:30:22;;;;;;;28.50;15.70;;;;;;;0.70;84.78;98245.10;228281;1193;138809;-66
2021/11/29 19:35:29;;;;;;;35.00;16.50;;;;;;;0.71;85.04;98246.98;228813;1193;139578;-67
2021/11/29 19:40:38;;;;;;;33.90;17.40;;;;;;;0.73;84.78;98246.30;227695;1193;139715;-67
2021/11/29 19:45:42;;;;;;;32.00;17.60;;;;;;;0.70;84.83;98239.61;228105;1194;139408;-67
2021/11/29 19:50:45;;;;;;;22.10;13.30;;;;;;;0.69;85.09;98242.96;228980;1193;138731;-67
2021/11/29 19:55:50;;;;;;;31.50;16.20;;;;;;;0.72;85.11;98245.42;228460;1193;139516;-67
2021/11/29 20:00:56;;;;;;;30.40;15.80;;;;;;;0.78;84.87;98251.17;227125;1194;143190;-66
2021/11/29 20:06:00;;;;;;;27.80;15.80;;;;;;;0.77;85.10;98251.90;227816;1194;139924;-67
2021/11/29 20:11:03;;;;;;;24.10;13.40;;;;;;;0.73;84.83;98258.85;227180;1194;139215;-67
2021/11/29 20:16:07;;;;;;;26.80;15.50;;;;;;;0.75;85.09;98262.23;228605;1193;140821;-67
2021/11/29 20:21:11;;;;;;;24.30;15.10;;;;;;;0.79;85.16;98262.59;228216;1193;140356;-67
2021/11/29 20:26:16;;;;;;;26.00;13.60;;;;;;;0.79;85.10;98276.71;228787;1193;139885;-67
2021/11/29 20:31:19;;;;;;;21.10;11.50;;;;;;;0.81;85.01;98279.48;229283;1193;139859;-67
2021/11/29 20:36:22;;;;;;;23.80;13.20;;;;;;;0.83;84.69;98278.64;230316;1194;140617;-70
2021/11/29 20:41:29;;;;;;;18.00;11.30;;;;;;;0.80;85.05;98281.55;226928;1194;140696;-67
2021/11/29 20:46:32;;;;;;;23.00;11.80;;;;;;;0.79;84.75;98284.50;229996;1193;139813;-68
2021/11/29 20:51:49;;;;;;;21.10;11.20;;;;;;;0.84;84.75;98284.20;229813;1194;140870;-67
2021/11/29 20:56:57;;;;;;;20.90;11.40;;;;;;;0.85;84.58;98280.81;229755;1194;141902;-68
2021/11/29 21:02:17;;;;;;;22.00;10.60;;;;;;;0.84;84.84;98284.12;227331;1193;141027;-67
2021/11/29 21:07:23;;;;;;;18.10;10.30;;;;;;;0.84;84.51;98292.48;228834;1195;139084;-67
2021/11/29 21:12:28;;;;;;;18.70;9.50;;;;;;;0.83;84.47;98300.71;228687;1193;141663;-67
2021/11/29 21:17:32;;;;;;;19.00;9.90;;;;;;;0.81;84.75;98310.60;228496;1193;139529;-67
2021/11/29 21:22:38;;;;;;;16.70;10.20;;;;;;;0.86;84.90;98310.88;227949;1193;141594;-68
2021/11/29 21:27:42;;;;;;;15.50;8.60;;;;;;;0.92;84.91;98308.54;228347;1193;142058;-67
2021/11/29 21:32:46;;;;;;;18.50;9.60;;;;;;;0.92;84.88;98315.64;229130;1193;141777;-67
2021/11/29 21:38:15;;;;;;;16.40;7.90;;;;;;;0.92;84.49;98321.25;227875;1193;140672;-66
2021/11/29 21:43:20;;;;;;;17.20;9.40;;;;;;;0.93;84.79;98327.45;227635;1193;138866;-67
2021/11/29 21:48:25;;;;;;;18.00;12.60;;;;;;;0.94;84.99;98331.29;228012;1193;139839;-67
2021/11/29 21:53:41;;;;;;;19.10;11.50;;;;;;;0.95;84.54;98330.95;227150;1193;140625;-67
2021/11/29 21:58:58;;;;;;;17.90;11.20;;;;;;;0.97;84.95;98333.34;228383;1194;140593;-67
2021/11/29 22:04:02;;;;;;;17.30;10.80;;;;;;;0.93;84.55;98331.25;228252;1194;140394;-67
2021/11/29 22:09:06;;;;;;;19.70;9.30;;;;;;;0.93;84.46;98337.70;227297;1194;139906;-67
2021/11/29 22:14:10;;;;;;;17.10;10.90;;;;;;;0.98;84.96;98342.50;229683;1193;138909;-67
2021/11/29 22:19:36;;;;;;;13.30;7.60;;;;;;;1.01;84.97;98345.72;228518;1193;139606;-67
2021/11/29 22:24:40;;;;;;;15.00;9.00;;;;;;;1.01;84.45;98343.54;229281;1194;140107;-68
2021/11/29 22:29:52;;;;;;;20.90;10.60;;;;;;;1.06;84.54;98354.42;228848;1194;139961;-67
2021/11/29 22:35:07;;;;;;;16.10;11.40;;;;;;;1.08;84.80;98349.46;228566;1194;139688;-67
2021/11/29 22:40:12;;;;;;;17.30;9.60;;;;;;;1.07;84.57;98349.78;228575;1193;142473;-67
2021/11/29 22:45:31;;;;;;;19.70;9.90;;;;;;;1.05;84.49;98344.27;230257;1193;138524;-68
2021/11/29 22:50:38;;;;;;;19.30;10.30;;;;;;;1.05;84.66;98345.83;230229;1193;139749;-68
2021/11/29 22:55:42;;;;;;;20.50;10.00;;;;;;;1.04;84.79;98347.89;229749;1194;138691;-69
2021/11/29 23:01:07;;;;;;;15.90;9.40;;;;;;;1.04;84.60;98351.23;229621;1195;138931;-68
2021/11/29 23:06:20;;;;;;;16.50;9.50;;;;;;;1.08;84.52;98357.33;229993;1195;140535;-68
2021/11/29 23:11:32;;;;;;;13.00;10.10;;;;;;;1.12;84.48;98362.40;227764;1193;139602;-67
2021/11/29 23:16:37;;;;;;;15.70;10.30;;;;;;;1.13;84.86;98362.89;229316;1195;139097;-67
2021/11/29 23:21:46;;;;;;;23.50;10.50;;;;;;;1.14;84.47;98371.04;228852;1193;140031;-68
2021/11/29 23:26:52;;;;;;;19.10;11.80;;;;;;;1.14;84.43;98377.98;227327;1193;141452;-67
2021/11/29 23:31:55;;;;;;;15.30;10.90;;;;;;;1.15;84.44;98382.63;228838;1193;139883;-68
2021/11/29 23:37:02;;;;;;;20.10;10.80;;;;;;;1.15;84.88;98388.04;228780;1194;140710;-68
2021/11/29 23:42:31;;;;;;;26.20;14.20;;;;;;;1.15;84.68;98393.45;227276;1194;139537;-68
2021/11/29 23:53:24;;;;;;;18.20;13.00;;;;;;;1.19;84.78;98386.01;227413;1194;140935;-67